sensor_id;sensor_type;location;lat;lon;timestamp;temperature;humidity
52024;DHT22;38038;45.922;13.604;2022-08-19T10:23:38;23.40;99.90
52024;DHT22;38038;45.922;13.604;2022-08-19T10:26:06;23.60;99.90
52024;DHT22;38038;45.922;13.604;2022-08-19T10:28:34;23.60;99.90
52024;DHT22;38038;45.922;13.604;2022-08-19T10:31:14;23.50;99.90
52024;DHT22;38038;45.922;13.604;2022-08-19T10:33:41;23.50;99.90
52024;DHT22;38038;45.922;13.604;2022-08-19T10:36:13;23.40;99.90
52024;DHT22;38038;45.922;13.604;2022-08-19T10:38:44;23.50;99.90
52024;DHT22;38038;45.922;13.604;2022-08-19T10:41:21;23.40;99.90
52024;DHT22;38038;45.922;13.604;2022-08-19T10:43:51;23.40;99.90
52024;DHT22;38038;45.922;13.604;2022-08-19T10:46:18;23.40;99.90
52024;DHT22;38038;45.922;13.604;2022-08-19T10:48:44;23.50;99.90
52024;DHT22;38038;45.922;13.604;2022-08-19T10:51:10;23.50;99.90
52024;DHT22;38038;45.922;13.604;2022-08-19T10:53:55;23.70;99.90
52024;DHT22;38038;45.922;13.604;2022-08-19T10:56:22;23.80;99.90
52024;DHT22;38038;45.922;13.604;2022-08-19T10:59:06;23.80;99.90
52024;DHT22;38038;45.922;13.604;2022-08-19T11:01:33;23.90;99.90
52024;DHT22;38038;45.922;13.604;2022-08-19T11:04:01;23.90;99.90
52024;DHT22;38038;45.922;13.604;2022-08-19T11:06:27;23.90;99.90
52024;DHT22;38038;45.922;13.604;2022-08-19T11:08:55;23.80;99.90
52024;DHT22;38038;45.922;13.604;2022-08-19T11:11:22;23.70;99.90
52024;DHT22;38038;45.922;13.604;2022-08-19T11:13:48;23.70;99.90
52024;DHT22;38038;45.922;13.604;2022-08-19T11:16:26;23.70;99.90
52024;DHT22;38038;45.922;13.604;2022-08-19T11:18:54;23.70;99.90
52024;DHT22;38038;45.922;13.604;2022-08-19T11:21:26;23.40;99.90
52024;DHT22;38038;45.922;13.604;2022-08-19T11:23:55;23.00;99.90
52024;DHT22;38038;45.922;13.604;2022-08-19T11:26:21;22.70;99.90
52024;DHT22;38038;45.922;13.604;2022-08-19T15:04:09;28.50;99.90
52024;DHT22;38038;45.922;13.604;2022-08-19T15:06:35;28.50;99.90
52024;DHT22;38038;45.922;13.604;2022-08-19T15:09:01;28.50;99.90
52024;DHT22;38038;45.922;13.604;2022-08-19T15:11:28;28.40;99.90
52024;DHT22;38038;45.922;13.604;2022-08-19T15:13:55;28.20;99.90
52024;DHT22;38038;45.922;13.604;2022-08-19T15:16:22;28.30;99.90
52024;DHT22;38038;45.922;13.604;2022-08-19T15:18:55;28.10;99.90
52024;DHT22;38038;45.922;13.604;2022-08-19T15:21:22;28.00;99.90
52024;DHT22;38038;45.922;13.604;2022-08-19T15:23:49;27.90;99.90
52024;DHT22;38038;45.922;13.604;2022-08-19T15:26:17;27.70;99.90
52024;DHT22;38038;45.922;13.604;2022-08-19T15:28:44;27.70;99.90
52024;DHT22;38038;45.922;13.604;2022-08-19T15:31:10;27.70;99.90
52024;DHT22;38038;45.922;13.604;2022-08-19T15:33:38;27.60;99.90
52024;DHT22;38038;45.922;13.604;2022-08-19T15:36:06;27.50;99.90
52024;DHT22;38038;45.922;13.604;2022-08-19T15:38:33;27.50;99.90
52024;DHT22;38038;45.922;13.604;2022-08-19T15:40:59;27.40;99.90
52024;DHT22;38038;45.922;13.604;2022-08-19T15:43:46;27.30;99.90
52024;DHT22;38038;45.922;13.604;2022-08-19T15:46:19;27.30;99.90
52024;DHT22;38038;45.922;13.604;2022-08-19T15:48:49;27.40;99.90
52024;DHT22;38038;45.922;13.604;2022-08-19T15:51:15;27.40;99.90
52024;DHT22;38038;45.922;13.604;2022-08-19T15:53:41;27.30;99.90
52024;DHT22;38038;45.922;13.604;2022-08-19T15:56:08;27.30;99.90
52024;DHT22;38038;45.922;13.604;2022-08-19T15:58:33;27.30;99.90
52024;DHT22;38038;45.922;13.604;2022-08-19T16:01:18;27.20;99.90
52024;DHT22;38038;45.922;13.604;2022-08-19T16:03:58;27.20;99.90
52024;DHT22;38038;45.922;13.604;2022-08-19T16:06:56;27.30;99.90
52024;DHT22;38038;45.922;13.604;2022-08-19T16:09:28;27.50;99.90
52024;DHT22;38038;45.922;13.604;2022-08-19T16:11:58;27.50;99.90
52024;DHT22;38038;45.922;13.604;2022-08-19T16:14:26;27.30;99.90
52024;DHT22;38038;45.922;13.604;2022-08-19T16:16:52;27.50;99.90
52024;DHT22;38038;45.922;13.604;2022-08-19T16:19:19;27.50;99.90
52024;DHT22;38038;45.922;13.604;2022-08-19T16:21:47;27.50;99.90
52024;DHT22;38038;45.922;13.604;2022-08-19T16:24:15;27.40;99.90
52024;DHT22;38038;45.922;13.604;2022-08-19T16:26:41;27.50;99.90
52024;DHT22;38038;45.922;13.604;2022-08-19T16:29:08;27.40;99.90
52024;DHT22;38038;45.922;13.604;2022-08-19T16:31:35;27.30;99.90
52024;DHT22;38038;45.922;13.604;2022-08-19T16:34:01;27.30;99.90
52024;DHT22;38038;45.922;13.604;2022-08-19T16:36:27;27.40;99.90
52024;DHT22;38038;45.922;13.604;2022-08-19T16:38:53;27.40;99.90
52024;DHT22;38038;45.922;13.604;2022-08-19T16:41:20;27.50;99.90
52024;DHT22;38038;45.922;13.604;2022-08-19T16:43:46;27.40;99.90
52024;DHT22;38038;45.922;13.604;2022-08-19T16:46:13;27.50;99.90
52024;DHT22;38038;45.922;13.604;2022-08-19T16:48:39;27.50;99.90
52024;DHT22;38038;45.922;13.604;2022-08-19T16:51:08;27.50;99.90
52024;DHT22;38038;45.922;13.604;2022-08-19T16:53:36;27.50;99.90
52024;DHT22;38038;45.922;13.604;2022-08-19T16:56:02;27.40;99.90
52024;DHT22;38038;45.922;13.604;2022-08-19T16:58:29;27.30;99.90
52024;DHT22;38038;45.922;13.604;2022-08-19T17:01:00;27.00;99.90
52024;DHT22;38038;45.922;13.604;2022-08-19T17:03:26;26.90;99.90
52024;DHT22;38038;45.922;13.604;2022-08-19T17:05:54;26.80;99.90
52024;DHT22;38038;45.922;13.604;2022-08-19T17:08:22;26.70;99.90
52024;DHT22;38038;45.922;13.604;2022-08-19T17:10:51;26.60;99.90
52024;DHT22;38038;45.922;13.604;2022-08-19T17:13:23;26.50;99.90
52024;DHT22;38038;45.922;13.604;2022-08-19T17:15:49;26.40;99.90
52024;DHT22;38038;45.922;13.604;2022-08-19T17:18:15;26.40;99.90
52024;DHT22;38038;45.922;13.604;2022-08-19T17:20:42;26.40;99.90
52024;DHT22;38038;45.922;13.604;2022-08-19T17:23:08;26.30;99.90
52024;DHT22;38038;45.922;13.604;2022-08-19T17:25:34;26.20;99.90
52024;DHT22;38038;45.922;13.604;2022-08-19T17:28:15;26.20;99.90
52024;DHT22;38038;45.922;13.604;2022-08-19T17:30:41;26.10;99.90
52024;DHT22;38038;45.922;13.604;2022-08-19T17:33:07;26.00;99.90
52024;DHT22;38038;45.922;13.604;2022-08-19T17:35:33;26.00;99.90
52024;DHT22;38038;45.922;13.604;2022-08-19T17:38:04;25.90;99.90
52024;DHT22;38038;45.922;13.604;2022-08-19T17:40:30;25.80;99.90
52024;DHT22;38038;45.922;13.604;2022-08-19T17:42:56;25.80;99.90
52024;DHT22;38038;45.922;13.604;2022-08-19T17:45:22;25.70;99.90
52024;DHT22;38038;45.922;13.604;2022-08-19T17:47:49;25.60;99.90
52024;DHT22;38038;45.922;13.604;2022-08-19T17:50:14;25.60;99.90
52024;DHT22;38038;45.922;13.604;2022-08-19T17:52:41;25.40;99.90
52024;DHT22;38038;45.922;13.604;2022-08-19T17:55:08;25.30;99.90
52024;DHT22;38038;45.922;13.604;2022-08-19T17:57:35;25.20;99.90
52024;DHT22;38038;45.922;13.604;2022-08-19T18:00:03;25.10;99.90
52024;DHT22;38038;45.922;13.604;2022-08-19T18:02:29;25.00;99.90
52024;DHT22;38038;45.922;13.604;2022-08-19T18:04:54;24.80;99.90
52024;DHT22;38038;45.922;13.604;2022-08-19T18:07:20;24.80;99.90
52024;DHT22;38038;45.922;13.604;2022-08-19T18:09:47;24.70;99.90
52024;DHT22;38038;45.922;13.604;2022-08-19T18:12:23;24.70;99.90
52024;DHT22;38038;45.922;13.604;2022-08-19T18:14:51;24.70;99.90
52024;DHT22;38038;45.922;13.604;2022-08-19T18:17:17;24.70;99.90
52024;DHT22;38038;45.922;13.604;2022-08-19T18:19:45;24.50;99.90
52024;DHT22;38038;45.922;13.604;2022-08-19T18:22:27;24.30;99.90
52024;DHT22;38038;45.922;13.604;2022-08-19T18:24:54;24.20;99.90
52024;DHT22;38038;45.922;13.604;2022-08-19T18:27:21;24.00;99.90
52024;DHT22;38038;45.922;13.604;2022-08-19T18:29:47;24.00;99.90
52024;DHT22;38038;45.922;13.604;2022-08-19T18:32:15;24.00;99.90
52024;DHT22;38038;45.922;13.604;2022-08-19T18:34:42;24.00;99.90
52024;DHT22;38038;45.922;13.604;2022-08-19T18:37:09;23.90;99.90
52024;DHT22;38038;45.922;13.604;2022-08-19T18:39:35;23.90;99.90
52024;DHT22;38038;45.922;13.604;2022-08-19T18:42:19;23.90;99.90
52024;DHT22;38038;45.922;13.604;2022-08-19T18:45:04;23.90;99.90
52024;DHT22;38038;45.922;13.604;2022-08-19T18:47:49;23.80;99.90
52024;DHT22;38038;45.922;13.604;2022-08-19T18:50:33;23.80;99.90
52024;DHT22;38038;45.922;13.604;2022-08-19T18:52:58;23.70;99.90
52024;DHT22;38038;45.922;13.604;2022-08-19T18:55:24;23.60;99.90
52024;DHT22;38038;45.922;13.604;2022-08-19T18:57:53;23.50;99.90
52024;DHT22;38038;45.922;13.604;2022-08-19T19:00:19;23.50;99.90
52024;DHT22;38038;45.922;13.604;2022-08-19T19:02:45;23.60;99.90
52024;DHT22;38038;45.922;13.604;2022-08-19T19:05:14;23.70;99.90
52024;DHT22;38038;45.922;13.604;2022-08-19T19:07:41;23.80;99.90
52024;DHT22;38038;45.922;13.604;2022-08-19T19:10:07;23.80;99.90
52024;DHT22;38038;45.922;13.604;2022-08-19T19:12:35;23.70;99.90
52024;DHT22;38038;45.922;13.604;2022-08-19T19:15:04;23.70;99.90
52024;DHT22;38038;45.922;13.604;2022-08-19T19:17:30;23.50;99.90
52024;DHT22;38038;45.922;13.604;2022-08-19T19:19:56;23.50;99.90
52024;DHT22;38038;45.922;13.604;2022-08-19T19:22:23;23.30;99.90
52024;DHT22;38038;45.922;13.604;2022-08-19T19:24:49;23.20;99.90
52024;DHT22;38038;45.922;13.604;2022-08-19T19:27:17;23.20;99.90
52024;DHT22;38038;45.922;13.604;2022-08-19T19:29:45;23.20;99.90
52024;DHT22;38038;45.922;13.604;2022-08-19T19:32:26;23.20;99.90
52024;DHT22;38038;45.922;13.604;2022-08-19T19:34:52;23.20;99.90
52024;DHT22;38038;45.922;13.604;2022-08-19T19:37:18;23.10;99.90
52024;DHT22;38038;45.922;13.604;2022-08-19T19:39:44;23.10;99.90
52024;DHT22;38038;45.922;13.604;2022-08-19T19:42:19;23.10;99.90
52024;DHT22;38038;45.922;13.604;2022-08-19T19:44:44;23.10;99.90
52024;DHT22;38038;45.922;13.604;2022-08-19T19:47:13;23.10;99.90
52024;DHT22;38038;45.922;13.604;2022-08-19T19:49:40;23.10;99.90
52024;DHT22;38038;45.922;13.604;2022-08-19T19:52:06;23.10;99.90
52024;DHT22;38038;45.922;13.604;2022-08-19T19:54:32;23.20;99.90
52024;DHT22;38038;45.922;13.604;2022-08-19T19:56:58;23.10;99.90
52024;DHT22;38038;45.922;13.604;2022-08-19T19:59:24;23.10;99.90
52024;DHT22;38038;45.922;13.604;2022-08-19T20:01:50;23.10;99.90
52024;DHT22;38038;45.922;13.604;2022-08-19T20:04:16;23.10;99.90
52024;DHT22;38038;45.922;13.604;2022-08-19T20:06:44;23.10;99.90
52024;DHT22;38038;45.922;13.604;2022-08-19T20:09:10;23.00;99.90
52024;DHT22;38038;45.922;13.604;2022-08-19T20:11:41;23.00;99.90
52024;DHT22;38038;45.922;13.604;2022-08-19T20:14:09;23.10;99.90
52024;DHT22;38038;45.922;13.604;2022-08-19T20:16:36;23.10;99.90
52024;DHT22;38038;45.922;13.604;2022-08-19T20:19:06;23.20;99.90
52024;DHT22;38038;45.922;13.604;2022-08-19T20:21:32;23.20;99.90
52024;DHT22;38038;45.922;13.604;2022-08-19T20:24:02;23.20;99.90
52024;DHT22;38038;45.922;13.604;2022-08-19T20:26:28;23.20;99.90
52024;DHT22;38038;45.922;13.604;2022-08-19T20:28:55;23.10;99.90
52024;DHT22;38038;45.922;13.604;2022-08-19T20:31:21;23.00;99.90
52024;DHT22;38038;45.922;13.604;2022-08-19T20:33:48;23.00;99.90
52024;DHT22;38038;45.922;13.604;2022-08-19T20:36:14;23.00;99.90
52024;DHT22;38038;45.922;13.604;2022-08-19T20:38:40;23.10;99.90
52024;DHT22;38038;45.922;13.604;2022-08-19T20:41:06;23.00;99.90
52024;DHT22;38038;45.922;13.604;2022-08-19T20:43:32;22.90;99.90
52024;DHT22;38038;45.922;13.604;2022-08-19T20:45:59;23.00;99.90
52024;DHT22;38038;45.922;13.604;2022-08-19T20:48:27;23.10;99.90
52024;DHT22;38038;45.922;13.604;2022-08-19T20:50:53;23.10;99.90
52024;DHT22;38038;45.922;13.604;2022-08-19T20:53:20;23.00;99.90
52024;DHT22;38038;45.922;13.604;2022-08-19T20:55:48;22.90;99.90
52024;DHT22;38038;45.922;13.604;2022-08-19T20:58:16;22.90;99.90
52024;DHT22;38038;45.922;13.604;2022-08-19T21:00:43;22.80;99.90
52024;DHT22;38038;45.922;13.604;2022-08-19T21:03:11;22.70;99.90
52024;DHT22;38038;45.922;13.604;2022-08-19T21:05:37;22.70;99.90
52024;DHT22;38038;45.922;13.604;2022-08-19T21:08:03;22.70;99.90
52024;DHT22;38038;45.922;13.604;2022-08-19T21:10:30;22.70;99.90
52024;DHT22;38038;45.922;13.604;2022-08-19T21:12:55;22.70;99.90
52024;DHT22;38038;45.922;13.604;2022-08-19T21:15:21;22.50;99.90
52024;DHT22;38038;45.922;13.604;2022-08-19T21:17:49;22.40;99.90
52024;DHT22;38038;45.922;13.604;2022-08-19T21:20:16;22.50;99.90
52024;DHT22;38038;45.922;13.604;2022-08-19T21:22:43;22.50;99.90
52024;DHT22;38038;45.922;13.604;2022-08-19T21:25:10;22.50;99.90
52024;DHT22;38038;45.922;13.604;2022-08-19T21:27:36;22.50;99.90
52024;DHT22;38038;45.922;13.604;2022-08-19T21:30:04;22.50;99.90
52024;DHT22;38038;45.922;13.604;2022-08-19T21:32:30;22.30;99.90
52024;DHT22;38038;45.922;13.604;2022-08-19T21:34:55;22.30;99.90
52024;DHT22;38038;45.922;13.604;2022-08-19T21:37:21;22.30;99.90
52024;DHT22;38038;45.922;13.604;2022-08-19T21:39:47;22.30;99.90
52024;DHT22;38038;45.922;13.604;2022-08-19T21:42:14;22.50;99.90
52024;DHT22;38038;45.922;13.604;2022-08-19T21:44:40;22.50;99.90
52024;DHT22;38038;45.922;13.604;2022-08-19T21:47:06;22.50;99.90
52024;DHT22;38038;45.922;13.604;2022-08-19T21:49:32;22.50;99.90
52024;DHT22;38038;45.922;13.604;2022-08-19T21:51:58;22.40;99.90
52024;DHT22;38038;45.922;13.604;2022-08-19T21:54:24;22.30;99.90
52024;DHT22;38038;45.922;13.604;2022-08-19T21:56:50;22.30;99.90
52024;DHT22;38038;45.922;13.604;2022-08-19T21:59:15;22.20;99.90
52024;DHT22;38038;45.922;13.604;2022-08-19T22:01:42;22.10;99.90
52024;DHT22;38038;45.922;13.604;2022-08-19T22:04:08;22.10;99.90
52024;DHT22;38038;45.922;13.604;2022-08-19T22:06:34;22.00;99.90
52024;DHT22;38038;45.922;13.604;2022-08-19T22:09:00;22.00;99.90
52024;DHT22;38038;45.922;13.604;2022-08-19T22:11:26;22.00;99.90
52024;DHT22;38038;45.922;13.604;2022-08-19T22:13:53;22.00;99.90
52024;DHT22;38038;45.922;13.604;2022-08-19T22:16:21;22.10;99.90
52024;DHT22;38038;45.922;13.604;2022-08-19T22:18:47;22.10;99.90
52024;DHT22;38038;45.922;13.604;2022-08-19T22:21:15;22.10;99.90
52024;DHT22;38038;45.922;13.604;2022-08-19T22:23:42;22.00;99.90
52024;DHT22;38038;45.922;13.604;2022-08-19T22:26:13;21.80;99.90
52024;DHT22;38038;45.922;13.604;2022-08-19T22:28:39;21.70;99.90
52024;DHT22;38038;45.922;13.604;2022-08-19T22:31:04;21.70;99.90
52024;DHT22;38038;45.922;13.604;2022-08-19T22:33:30;21.70;99.90
52024;DHT22;38038;45.922;13.604;2022-08-19T22:35:57;21.70;99.90
52024;DHT22;38038;45.922;13.604;2022-08-19T22:38:24;21.70;99.90
52024;DHT22;38038;45.922;13.604;2022-08-19T22:40:51;21.70;99.90
52024;DHT22;38038;45.922;13.604;2022-08-19T22:43:22;21.70;99.90
52024;DHT22;38038;45.922;13.604;2022-08-19T22:45:50;21.60;99.90
52024;DHT22;38038;45.922;13.604;2022-08-19T22:48:17;21.60;99.90
52024;DHT22;38038;45.922;13.604;2022-08-19T22:50:45;21.50;99.90
52024;DHT22;38038;45.922;13.604;2022-08-19T22:53:34;21.50;99.90
52024;DHT22;38038;45.922;13.604;2022-08-19T22:56:00;21.50;99.90
52024;DHT22;38038;45.922;13.604;2022-08-19T22:58:28;21.50;99.90
52024;DHT22;38038;45.922;13.604;2022-08-19T23:00:54;21.40;99.90
52024;DHT22;38038;45.922;13.604;2022-08-19T23:03:21;21.50;99.90
52024;DHT22;38038;45.922;13.604;2022-08-19T23:05:47;21.50;99.90
52024;DHT22;38038;45.922;13.604;2022-08-19T23:08:12;21.50;99.90
52024;DHT22;38038;45.922;13.604;2022-08-19T23:10:38;21.60;99.90
52024;DHT22;38038;45.922;13.604;2022-08-19T23:13:04;21.60;99.90
52024;DHT22;38038;45.922;13.604;2022-08-19T23:15:32;21.60;99.90
52024;DHT22;38038;45.922;13.604;2022-08-19T23:18:00;21.50;99.90
52024;DHT22;38038;45.922;13.604;2022-08-19T23:20:31;21.60;99.90
52024;DHT22;38038;45.922;13.604;2022-08-19T23:22:57;21.50;99.90
52024;DHT22;38038;45.922;13.604;2022-08-19T23:25:26;21.50;99.90
52024;DHT22;38038;45.922;13.604;2022-08-19T23:27:52;21.60;99.90
52024;DHT22;38038;45.922;13.604;2022-08-19T23:30:39;21.50;99.90
52024;DHT22;38038;45.922;13.604;2022-08-19T23:33:23;21.50;99.90
52024;DHT22;38038;45.922;13.604;2022-08-19T23:35:53;21.50;99.90
52024;DHT22;38038;45.922;13.604;2022-08-19T23:38:20;21.60;99.90
52024;DHT22;38038;45.922;13.604;2022-08-19T23:40:49;21.60;99.90
52024;DHT22;38038;45.922;13.604;2022-08-19T23:43:15;21.40;99.90
52024;DHT22;38038;45.922;13.604;2022-08-19T23:45:42;21.30;99.90
52024;DHT22;38038;45.922;13.604;2022-08-19T23:48:08;21.40;99.90
52024;DHT22;38038;45.922;13.604;2022-08-19T23:50:36;21.50;99.90
52024;DHT22;38038;45.922;13.604;2022-08-19T23:53:02;21.60;99.90
52024;DHT22;38038;45.922;13.604;2022-08-19T23:55:33;21.60;99.90
52024;DHT22;38038;45.922;13.604;2022-08-19T23:58:00;21.60;99.90
